Terminal Aerodrome Forecast
Issued by NWS Jackson, MS

Home | Current Version | Previous Version | Text Only | Print | Product List | Glossary On
Versions: 1 2 3 4 5 6 7 8 9 10 11 12 13 14 15 16
416
FTUS44 KJAN 241741
TAFJAN
TAF
KJAN 241741Z 2418/2518 16006KT P6SM VCTS SCT040CB BKN060
     FM242300 VRB03KT P6SM SKC
     FM251000 00000KT 5SM BR SKC
     FM251500 VRB03KT P6SM SCT035=

USA.gov is the U.S. government's official web portal to all federal, state and local government web resources and services.